Sioux Gateway Col. Bud Day Field
KSUX : now visible

Airfield :











YOU CAN JOIN US ON...

 
LOGIN :

Register | Disclaimer

   EN    FR    IT 

 









Legend :    VFR   Marginal VFR   IFR   Intensive IFR   Very Intensive IFR
Visi :
Ceiling :
>= 8 km
>= 3000ft
5 to 8 km
1000 to 3000 ft
1500m to 5 km
500 to 1000 ft
800 to 1500m
200 to 500 ft
< 800m
< 200 ft
Symbols :   Thunderstorms  Fog  Heavy snow  Heavy precipitations  Wind > 20 kt







- Airport Elevation : 1098 ft
- IATA code : SUX


KSUX - Sioux Gateway Col. Bud Day Field

CURRENT METAR :
  • 201552Z 15010KT 10SM CLR 26/22 A2998 RMK AO2 SLP144 T02560217

EXPIRED METARs :
  • 201452Z 14011KT 10SM CLR 24/22 A2998 RMK AO2 SLP146 T02440217 50008
  • 201352Z 14009KT 8SM CLR 22/21 A2999 RMK AO2 SLP147 T02170211

TAF KSUX
Valid from the 20 at 12:00 until the 21 at 12:00 UTC


201120Z 2012/2112 12010KT P6SM BKN200
FM201700 17012G22KT P6SM SCT040 SCT250
FM210400 16013G20KT P6SM BKN035
FM210700 16015G22KT P6SM BKN025
No reported NOTAMs for that airfield.



MET'MAP, your aeronautical weather chart ! - Copyright ORBIFLY December 2007 - Disclaimer

ORBIFLY MET'MAP TEAM :

Programming & Development : Alexandra Zaïnal
Concept & Development : Baudouin d'Aumeries
Co-Development & Prog : Marc-Olivier Méhu
Technical & hardware support : Manuel Goepfert

Contact : metmap@orbifly.com




SOURCES & CREDITS :

   NOAA       Earth
Advisory